ADDS METAR Data INFO
IDs: Format: Raw Decoded Include TAF

Data at: 0317 UTC 20 Jul 2018

KGFK 200253Z 04006KT 10SM FEW040 SCT110 BKN170 19/18 A2982 RMK AO2 SLP096 CB DSNT SE T01940178 53018 $
KGFK 200153Z 33006KT 10SM FEW033 SCT100 BKN150 22/18 A2981 RMK AO2 PK WND 34028/0120 SLP091 CB DSNT SW AND SE T02170178 $
KGFK 200053Z 27007KT 10SM FEW030 FEW080 BKN110 OVC180 24/22 A2978 RMK AO2 LTG DSNT N SLP081 CB DSNT N T02440222 $
KGFK 192353Z 23006KT 10SM FEW040 BKN110 BKN170 OVC220 25/21 A2977 RMK AO2 LTG DSNT NW SLP078 60000 T02500206 10261 20244 58001 $
KGFK 192253Z 20005KT 10SM FEW045 SCT110 OVC220 26/19 A2977 RMK AO2 SLP080 T02560194 $
KGFK 192153Z 15007KT 10SM FEW040 SCT090 OVC190 25/22 A2978 RMK AO2 SLP081 T02500222 $
KGFK 192053Z 08004KT 10SM FEW040 SCT065 BKN090 OVC180 25/21 A2977 RMK AO2 RAB17E43 SLP079 P0000 60000 T02500211 58010 $
KGFK 191953Z 00000KT 10SM FEW040 BKN120 OVC190 24/21 A2979 RMK AO2 SLP085 T02440211 $
KGFK 191853Z 00000KT 10SM FEW040 SCT120 OVC190 26/21 A2980 RMK AO2 SLP089 T02560206 $
KGFK 191753Z 34004KT 10SM FEW080 OVC170 25/21 A2980 RMK AO2 SLP089 T02500206 10256 20194 53002 $
KGFK 191653Z 00000KT 10SM FEW050 FEW080 BKN140 OVC180 25/20 A2980 RMK AO2 SLP088 T02500200 $
KGFK 191553Z 00000KT 10SM FEW050 FEW080 OVC170 24/20 A2980 RMK AO2 SLP087 T02390200 $
KGFK 191453Z 00000KT 10SM FEW050 BKN160 OVC200 23/20 A2980 RMK AO2 SLP086 T02330200 58001 $
KGFK 191353Z 14004KT 10SM FEW050 BKN160 OVC250 22/20 A2980 RMK AO2 SLP087 T02170200 $
KGFK 191253Z 00000KT 10SM FEW050 BKN170 OVC250 21/20 A2980 RMK AO2 SLP089 T02060200 $
KGFK 191153Z 00000KT 10SM BKN190 OVC250 19/19 A2980 RMK AO2 SLP087 T01940194 10200 20178 56008 $
KGFK 191053Z 14003KT 10SM BKN200 OVC250 19/19 A2980 RMK AO2 SLP089 T01890189 $
KGFK 190953Z AUTO 15003KT 10SM CLR 19/19 A2981 RMK AO2 SLP091 T01890189 $
KGFK 190853Z AUTO 00000KT 10SM CLR 18/18 A2982 RMK AO2 SLP095 T01830183 58010 $
KGFK 190753Z AUTO 14003KT 10SM CLR 19/19 A2984 RMK AO2 SLP100 T01940189 $
KGFK 190653Z AUTO 15004KT 10SM CLR 19/19 A2984 RMK AO2 SLP103 T01940189 $
KGFK 190553Z AUTO 19005KT 10SM CLR 19/19 A2985 RMK AO2 SLP105 T01940189 10283 20183 403060117 56005 $
KGFK 190453Z AUTO 18003KT 10SM CLR 18/18 A2985 RMK AO2 SLP107 T01830183 $
KGFK 190430Z 17004KT 10SM FEW090 SCT140 BKN190 20/19 A2985 RMK AO2 LAST T02000194 $
KGFK 190353Z 15005KT 10SM FEW080 SCT130 BKN190 21/20 A2986 RMK AO2 SLP107 T02110200 $
KGFK 190253Z 15005KT 10SM FEW080 SCT130 BKN190 23/19 A2987 RMK AO2 SLP111 T02280194 55007 $
KGFK 190153Z 17006KT 10SM FEW060 SCT090 BKN180 24/19 A2986 RMK AO2 SLP110 T02440189 $
KGFK 190053Z 18007KT 10SM FEW085 FEW120 BKN200 27/20 A2987 RMK AO2 SLP112 T02720200 $
KGFK 182353Z 18010KT 10SM FEW050 SCT090 BKN180 28/20 A2989 RMK AO2 SLP119 T02780200 10306 20272 55009 $
KGFK 182253Z 19012KT 10SM FEW045 SCT080 BKN180 30/20 A2989 RMK AO2 SLP119 T03000200 $
KGFK 182153Z 18011KT 10SM FEW045 SCT080 BKN180 30/19 A2990 RMK AO2 SLP122 T03000194 $
KGFK 182053Z 17012KT 10SM FEW045 SCT090 BKN180 30/18 A2992 RMK AO2 SLP129 T03000178 57015 $
KGFK 181953Z 18012G17KT 10SM FEW035 SCT130 BKN180 31/19 A2993 RMK AO2 SLP134 T03060194 $
KGFK 181853Z 17009KT 10SM FEW040 FEW130 BKN180 28/21 A2995 RMK AO2 SLP139 T02830206 $
KGFK 181753Z 17011KT 10SM FEW060 FEW150 OVC250 28/20 A2996 RMK AO2 SLP144 T02780200 10278 20144 58015 $
KGFK 181653Z 15011KT 10SM FEW070 FEW150 OVC250 26/19 A2998 RMK AO2 SLP150 T02610189 $
KGFK 181553Z 14010KT 10SM FEW150 OVC250 25/18 A3000 RMK AO2 SLP156 T02500183 $